createdAt,value
2023-03-02T00:00:48.164Z,99.90
2023-03-02T00:03:18.418Z,99.90
2023-03-02T00:05:49.458Z,99.90
2023-03-02T00:08:18.389Z,99.90
2023-03-02T00:10:45.406Z,99.90
2023-03-02T00:13:13.816Z,99.90
2023-03-02T00:15:40.624Z,99.90
2023-03-02T00:18:07.363Z,99.90
2023-03-02T00:20:35.959Z,99.90
2023-03-02T00:23:02.714Z,99.90
2023-03-02T00:25:29.464Z,99.90
2023-03-02T00:27:56.279Z,99.90
2023-03-02T00:30:23.038Z,99.90
2023-03-02T00:32:49.812Z,99.90
2023-03-02T00:35:17.028Z,99.90
2023-03-02T00:37:44.002Z,99.90
2023-03-02T00:40:11.441Z,99.90
2023-03-02T00:42:38.329Z,99.90
2023-03-02T00:45:06.295Z,99.90
2023-03-02T00:47:37.500Z,99.90
2023-03-02T00:50:05.855Z,99.90
2023-03-02T00:52:33.377Z,99.90
2023-03-02T00:55:00.109Z,99.90
2023-03-02T00:57:26.846Z,99.90
2023-03-02T00:59:53.580Z,99.90
2023-03-02T01:02:21.748Z,99.90
2023-03-02T01:04:49.049Z,99.90
2023-03-02T01:07:18.642Z,99.90
2023-03-02T01:09:45.885Z,99.90
2023-03-02T01:12:12.799Z,99.90
2023-03-02T01:14:45.147Z,99.90
2023-03-02T01:17:13.050Z,99.90
2023-03-02T01:19:40.946Z,99.90
2023-03-02T01:22:08.090Z,99.90
2023-03-02T01:24:35.239Z,99.90
2023-03-02T01:27:02.019Z,99.90
2023-03-02T01:29:28.904Z,99.90
2023-03-02T01:31:55.900Z,99.90
2023-03-02T01:34:22.790Z,99.90
2023-03-02T01:36:49.557Z,99.90
2023-03-02T01:39:16.445Z,99.90
2023-03-02T01:41:45.071Z,99.90
2023-03-02T01:44:33.683Z,99.90
2023-03-02T01:47:00.733Z,99.90
2023-03-02T01:49:28.031Z,99.90
2023-03-02T01:51:54.942Z,99.90
2023-03-02T01:54:23.627Z,99.90
2023-03-02T01:56:54.615Z,99.90
2023-03-02T01:59:23.091Z,99.90
2023-03-02T02:01:53.981Z,99.90
2023-03-02T02:04:21.860Z,99.90
2023-03-02T02:06:54.552Z,99.90
2023-03-02T02:09:23.947Z,99.90
2023-03-02T02:11:50.665Z,99.90
2023-03-02T02:14:17.415Z,99.90
2023-03-02T02:16:44.334Z,99.90
2023-03-02T02:19:39.133Z,99.90
2023-03-02T02:22:05.934Z,99.90
2023-03-02T02:24:39.095Z,99.90
2023-03-02T02:27:05.813Z,99.90
2023-03-02T02:29:45.512Z,99.90
2023-03-02T02:32:14.644Z,99.90
2023-03-02T02:34:53.308Z,99.90
2023-03-02T02:37:26.937Z,99.90
2023-03-02T02:39:55.185Z,99.90
2023-03-02T02:42:30.833Z,99.90
2023-03-02T02:45:00.770Z,99.90
2023-03-02T02:47:28.923Z,99.90
2023-03-02T02:49:57.195Z,99.90
2023-03-02T02:52:27.974Z,99.90
2023-03-02T02:54:57.444Z,99.90
2023-03-02T02:57:28.863Z,99.90
2023-03-02T02:59:58.597Z,99.90
2023-03-02T03:02:29.035Z,99.90
2023-03-02T03:05:03.087Z,99.90
2023-03-02T03:07:31.340Z,99.90
2023-03-02T03:10:13.120Z,99.90
2023-03-02T03:12:40.502Z,99.90
2023-03-02T03:15:08.593Z,99.90
2023-03-02T03:17:35.299Z,99.90
2023-03-02T03:20:09.395Z,99.90
2023-03-02T03:22:38.374Z,99.90
2023-03-02T03:25:05.707Z,99.90
2023-03-02T03:27:32.434Z,99.90
2023-03-02T03:30:01.817Z,99.90
2023-03-02T03:32:29.037Z,99.90
2023-03-02T03:34:55.832Z,99.90
2023-03-02T03:37:22.522Z,99.90
2023-03-02T03:39:49.453Z,99.90
2023-03-02T03:42:16.205Z,99.90
2023-03-02T03:44:42.994Z,99.90
2023-03-02T03:47:09.783Z,99.90
2023-03-02T03:49:36.660Z,99.90
2023-03-02T03:52:03.930Z,99.90
2023-03-02T03:54:30.912Z,99.90
2023-03-02T03:56:57.642Z,99.90
2023-03-02T03:59:27.021Z,99.90
2023-03-02T04:01:56.754Z,99.90
2023-03-02T04:04:30.150Z,99.90
2023-03-02T04:06:57.326Z,99.90
2023-03-02T04:09:25.059Z,99.90
2023-03-02T04:11:53.931Z,99.90
2023-03-02T04:14:22.592Z,99.90
2023-03-02T04:16:49.319Z,99.90
2023-03-02T04:19:17.624Z,99.90
2023-03-02T04:21:48.098Z,99.90
2023-03-02T04:24:15.724Z,99.90
2023-03-02T04:26:43.641Z,99.90
2023-03-02T04:29:11.088Z,99.90
2023-03-02T04:31:37.840Z,99.90
2023-03-02T04:34:05.461Z,99.90
2023-03-02T04:36:34.614Z,99.90
2023-03-02T04:39:01.863Z,99.90
2023-03-02T04:41:28.557Z,99.90
2023-03-02T04:43:55.231Z,99.90
2023-03-02T04:46:27.404Z,99.90
2023-03-02T04:48:54.679Z,99.90
2023-03-02T04:51:28.085Z,99.90
2023-03-02T04:53:57.371Z,99.90
2023-03-02T04:56:24.192Z,99.90
2023-03-02T04:58:51.395Z,99.90
2023-03-02T05:01:19.742Z,99.90
2023-03-02T05:03:47.025Z,99.90
2023-03-02T05:06:14.194Z,99.90
2023-03-02T05:08:41.235Z,99.90
2023-03-02T05:11:09.028Z,99.90
2023-03-02T05:13:36.199Z,99.90
2023-03-02T05:16:03.522Z,99.90
2023-03-02T05:18:31.377Z,99.90
2023-03-02T05:20:58.208Z,99.90
2023-03-02T05:23:25.801Z,99.90
2023-03-02T05:25:55.068Z,99.90
2023-03-02T05:28:24.196Z,99.90
2023-03-02T05:30:52.302Z,99.90
2023-03-02T05:33:20.212Z,99.90
2023-03-02T05:35:47.820Z,99.90
2023-03-02T05:38:14.889Z,99.90
2023-03-02T05:40:42.637Z,99.90
2023-03-02T05:43:10.645Z,99.90
2023-03-02T05:45:38.754Z,99.90
2023-03-02T05:48:06.170Z,99.90
2023-03-02T05:50:33.375Z,99.90
2023-03-02T05:53:02.595Z,99.90
2023-03-02T05:55:29.757Z,99.90
2023-03-02T05:57:56.846Z,99.90
2023-03-02T06:00:24.250Z,99.90
2023-03-02T06:02:51.057Z,99.90
2023-03-02T06:05:19.668Z,99.90
2023-03-02T06:07:46.756Z,99.90
2023-03-02T06:10:13.483Z,99.90
2023-03-02T06:12:40.921Z,99.90
2023-03-02T06:15:08.631Z,99.90
2023-03-02T06:17:35.566Z,99.90
2023-03-02T06:20:02.516Z,99.90
2023-03-02T06:22:29.212Z,99.90
2023-03-02T06:24:56.211Z,99.90
2023-03-02T06:27:22.954Z,99.90
2023-03-02T06:29:49.763Z,99.90
2023-03-02T06:32:16.604Z,99.90
2023-03-02T06:34:43.422Z,99.90
2023-03-02T06:37:10.490Z,99.90
2023-03-02T06:39:37.371Z,99.90
2023-03-02T06:42:04.195Z,99.90
2023-03-02T06:44:31.062Z,99.90
2023-03-02T06:46:57.857Z,99.90
2023-03-02T06:49:24.873Z,99.90
2023-03-02T06:51:51.587Z,99.90
2023-03-02T06:54:18.256Z,99.90
2023-03-02T06:56:44.954Z,99.90
2023-03-02T06:59:11.721Z,99.90
2023-03-02T07:01:38.464Z,99.90
2023-03-02T07:04:05.574Z,99.90
2023-03-02T07:06:32.271Z,99.90
2023-03-02T07:08:59.051Z,99.90
2023-03-02T07:11:25.753Z,99.90
2023-03-02T07:13:52.502Z,99.90
2023-03-02T07:16:19.227Z,99.90
2023-03-02T07:18:45.993Z,99.90
2023-03-02T07:21:12.696Z,99.90
2023-03-02T07:23:39.434Z,99.90
2023-03-02T07:26:08.510Z,99.90
2023-03-02T07:28:40.332Z,99.90
2023-03-02T07:31:07.478Z,99.90
2023-03-02T07:33:34.542Z,99.90
2023-03-02T07:36:01.847Z,99.90
2023-03-02T07:38:28.638Z,99.90
2023-03-02T07:40:55.557Z,99.90
2023-03-02T07:43:25.413Z,99.90
2023-03-02T07:45:52.683Z,99.90
2023-03-02T07:48:20.074Z,99.90
2023-03-02T07:50:46.889Z,99.90
2023-03-02T07:53:13.573Z,99.90
2023-03-02T07:55:41.628Z,99.90
2023-03-02T07:58:08.371Z,99.90
2023-03-02T08:00:36.715Z,99.90
2023-03-02T08:03:03.501Z,99.90
2023-03-02T08:05:30.796Z,99.90
2023-03-02T08:07:57.479Z,99.90
2023-03-02T08:10:24.196Z,99.90
2023-03-02T08:12:50.916Z,99.90
2023-03-02T08:15:17.726Z,99.90
2023-03-02T08:17:44.954Z,99.90
2023-03-02T08:20:12.320Z,99.90
2023-03-02T08:22:39.611Z,99.90
2023-03-02T08:25:07.358Z,99.90
2023-03-02T08:27:34.086Z,99.90
2023-03-02T08:30:00.791Z,99.90
2023-03-02T08:32:27.990Z,99.90
2023-03-02T08:34:54.698Z,99.90
2023-03-02T08:37:21.446Z,99.90
2023-03-02T08:39:48.546Z,99.90
2023-03-02T08:42:15.376Z,99.90
2023-03-02T08:44:42.040Z,99.90
2023-03-02T08:47:08.736Z,99.90
2023-03-02T08:49:37.879Z,99.90
2023-03-02T08:52:05.234Z,99.90
2023-03-02T08:54:34.521Z,99.90
2023-03-02T08:57:02.174Z,99.90
2023-03-02T08:59:29.390Z,99.90
2023-03-02T09:01:56.112Z,99.90
2023-03-02T09:04:22.894Z,99.90
2023-03-02T09:06:49.685Z,99.90
2023-03-02T09:09:16.448Z,99.90
2023-03-02T09:11:44.769Z,99.90
2023-03-02T09:14:12.137Z,99.90
2023-03-02T09:16:39.086Z,99.90
2023-03-02T09:19:06.226Z,99.90
2023-03-02T09:21:33.433Z,99.90
2023-03-02T09:24:00.346Z,99.90
2023-03-02T09:26:27.497Z,99.90
2023-03-02T09:28:54.882Z,99.90
2023-03-02T09:31:21.779Z,99.90
2023-03-02T09:33:48.748Z,99.90
2023-03-02T09:36:25.234Z,99.90
2023-03-02T09:38:52.646Z,99.90
2023-03-02T09:41:19.470Z,99.90
2023-03-02T09:44:09.205Z,99.90
2023-03-02T09:47:01.199Z,99.90
2023-03-02T09:49:53.830Z,99.90
2023-03-02T09:52:40.729Z,99.90
2023-03-02T09:55:16.360Z,99.90
2023-03-02T09:57:43.896Z,99.90
2023-03-02T10:00:19.719Z,99.90
2023-03-02T10:02:49.960Z,99.90
2023-03-02T10:05:23.840Z,99.90
2023-03-02T10:07:50.752Z,99.90
2023-03-02T10:11:00.567Z,99.90
2023-03-02T10:13:32.587Z,99.90
2023-03-02T10:16:14.035Z,99.90
2023-03-02T10:18:49.597Z,99.90
2023-03-02T10:21:31.972Z,99.90
2023-03-02T10:24:12.393Z,99.90
2023-03-02T10:26:49.492Z,99.90
2023-03-02T10:29:25.117Z,99.90
2023-03-02T10:31:59.160Z,99.90
2023-03-02T10:34:30.064Z,99.90
2023-03-02T10:36:58.201Z,99.90
2023-03-02T10:39:24.953Z,99.90
2023-03-02T10:42:04.711Z,99.90
2023-03-02T10:44:39.804Z,99.90
2023-03-02T10:47:07.654Z,99.90
2023-03-02T10:49:42.654Z,99.90
2023-03-02T10:52:17.870Z,99.90
2023-03-02T10:54:45.142Z,99.90
2023-03-02T10:57:44.800Z,99.90
2023-03-02T11:00:31.415Z,99.90
2023-03-02T11:03:05.895Z,99.90
2023-03-02T11:05:39.520Z,99.90
2023-03-02T11:08:10.137Z,99.90
2023-03-02T11:10:40.096Z,99.90
2023-03-02T11:13:19.082Z,99.90
2023-03-02T11:15:51.058Z,99.90
2023-03-02T11:18:30.979Z,99.90
2023-03-02T11:21:08.233Z,99.90
2023-03-02T11:24:00.780Z,99.90
2023-03-02T11:26:38.706Z,99.90
2023-03-02T11:29:11.568Z,99.90
2023-03-02T11:31:49.539Z,99.90
2023-03-02T11:34:40.268Z,99.90
2023-03-02T11:37:13.423Z,99.90
2023-03-02T11:39:55.450Z,99.90
2023-03-02T11:42:33.809Z,99.90
2023-03-02T11:45:16.651Z,99.90
2023-03-02T11:48:08.262Z,99.90
2023-03-02T11:50:53.314Z,99.90
2023-03-02T11:53:21.538Z,99.90
2023-03-02T11:55:50.674Z,99.90
2023-03-02T11:58:20.819Z,99.90
2023-03-02T12:00:49.585Z,99.90
2023-03-02T12:03:16.234Z,99.90
2023-03-02T12:05:52.155Z,99.90
2023-03-02T12:08:18.835Z,99.90
2023-03-02T12:11:05.265Z,99.90
2023-03-02T12:13:41.278Z,99.90
2023-03-02T12:16:37.058Z,99.90
2023-03-02T12:19:26.398Z,99.90
2023-03-02T12:22:02.621Z,99.90
2023-03-02T12:24:34.907Z,99.90
2023-03-02T12:27:01.653Z,99.90
2023-03-02T12:29:39.503Z,99.90
2023-03-02T12:32:25.611Z,99.90
2023-03-02T12:34:59.977Z,99.90
2023-03-02T12:37:31.675Z,99.90
2023-03-02T12:40:19.683Z,99.90
2023-03-02T12:43:14.201Z,99.90
2023-03-02T12:45:51.433Z,99.90
2023-03-02T12:48:24.112Z,99.90
2023-03-02T12:50:55.394Z,99.50
2023-03-02T12:53:22.240Z,99.90
2023-03-02T12:55:48.990Z,99.90
2023-03-02T12:58:20.356Z,99.90
2023-03-02T13:00:53.241Z,99.90
2023-03-02T13:03:20.092Z,99.90
2023-03-02T13:05:47.642Z,99.90
2023-03-02T13:08:24.411Z,99.90
2023-03-02T13:10:57.123Z,99.90
2023-03-02T13:13:32.254Z,99.90
2023-03-02T13:16:02.198Z,99.90
2023-03-02T13:18:32.165Z,99.60
2023-03-02T13:21:01.370Z,99.90
2023-03-02T13:23:30.184Z,99.90
2023-03-02T13:25:59.768Z,99.90
2023-03-02T13:28:32.062Z,99.90
2023-03-02T13:31:20.094Z,99.90
2023-03-02T13:33:48.877Z,99.90
2023-03-02T13:36:20.855Z,99.90
2023-03-02T13:38:53.666Z,99.90
2023-03-02T13:41:28.826Z,99.90
2023-03-02T13:43:55.991Z,99.90
2023-03-02T13:46:22.870Z,99.90
2023-03-02T13:49:10.191Z,99.90
2023-03-02T13:51:46.662Z,99.90
2023-03-02T13:54:26.290Z,99.90
2023-03-02T13:56:53.852Z,99.90
2023-03-02T13:59:22.478Z,99.90
2023-03-02T14:01:49.957Z,99.90
2023-03-02T14:04:18.929Z,99.90
2023-03-02T14:06:46.099Z,99.90
2023-03-02T14:09:13.459Z,99.90
2023-03-02T14:11:50.632Z,99.60
2023-03-02T14:14:20.598Z,99.30
2023-03-02T14:16:47.312Z,99.90
2023-03-02T14:19:18.242Z,99.90
2023-03-02T14:21:46.193Z,99.90
2023-03-02T14:24:13.318Z,99.20
2023-03-02T14:26:44.038Z,98.30
2023-03-02T14:29:28.576Z,98.00
2023-03-02T14:31:56.769Z,96.10
2023-03-02T14:34:23.852Z,94.80
2023-03-02T14:36:53.794Z,92.70
2023-03-02T14:39:37.249Z,91.00
2023-03-02T14:42:12.897Z,91.20
2023-03-02T14:44:40.702Z,91.20
2023-03-02T14:47:07.531Z,90.40
2023-03-02T14:49:34.282Z,90.70
2023-03-02T14:52:02.977Z,89.70
2023-03-02T14:54:38.744Z,87.30
2023-03-02T14:57:14.890Z,79.50
2023-03-02T14:59:41.627Z,82.00
2023-03-02T15:02:24.290Z,79.60
2023-03-02T15:04:56.156Z,80.00
2023-03-02T15:07:23.734Z,82.10
2023-03-02T15:09:50.584Z,84.40
2023-03-02T15:12:17.382Z,84.00
2023-03-02T15:14:44.084Z,82.20
2023-03-02T15:17:10.944Z,83.10
2023-03-02T15:19:37.651Z,83.40
2023-03-02T15:22:04.710Z,83.60
2023-03-02T15:24:33.428Z,83.00
2023-03-02T15:27:01.504Z,86.00
2023-03-02T15:29:28.365Z,90.80
2023-03-02T15:31:55.330Z,92.20
2023-03-02T15:34:22.148Z,90.90
2023-03-02T15:36:49.142Z,90.40
2023-03-02T15:39:16.750Z,92.70
2023-03-02T15:41:43.482Z,95.00
2023-03-02T15:44:22.713Z,93.60
2023-03-02T15:47:00.051Z,96.00
2023-03-02T15:49:29.275Z,93.80
2023-03-02T15:52:00.249Z,93.80
2023-03-02T15:54:28.592Z,93.80
2023-03-02T15:56:56.114Z,94.40
2023-03-02T15:59:30.171Z,94.70
2023-03-02T16:02:02.290Z,97.10
2023-03-02T16:04:30.833Z,97.00
2023-03-02T16:06:57.687Z,97.90
2023-03-02T16:09:25.575Z,99.70
2023-03-02T16:11:53.004Z,99.40
2023-03-02T16:14:19.922Z,99.30
2023-03-02T16:16:47.078Z,98.30
2023-03-02T16:19:18.775Z,98.40
2023-03-02T16:21:47.246Z,98.80
2023-03-02T16:24:16.263Z,99.10
2023-03-02T16:26:44.686Z,99.30
2023-03-02T16:29:12.472Z,99.60
2023-03-02T16:31:40.077Z,99.90
2023-03-02T16:34:08.907Z,99.90
2023-03-02T16:36:38.400Z,99.90
2023-03-02T16:39:06.856Z,99.90
2023-03-02T16:41:34.518Z,99.90
2023-03-02T16:44:01.747Z,99.90
2023-03-02T16:46:31.139Z,99.90
2023-03-02T16:48:59.076Z,99.90
2023-03-02T16:51:25.993Z,99.90
2023-03-02T16:53:53.174Z,99.90
2023-03-02T16:56:20.430Z,99.90
2023-03-02T16:58:47.431Z,99.90
2023-03-02T17:01:18.131Z,99.90
2023-03-02T17:03:45.764Z,99.90
2023-03-02T17:06:14.689Z,99.90
2023-03-02T17:08:41.687Z,99.90
2023-03-02T17:11:08.583Z,99.90
2023-03-02T17:13:35.599Z,99.90
2023-03-02T17:16:03.056Z,99.90
2023-03-02T17:18:30.187Z,99.90
2023-03-02T17:20:58.680Z,99.90
2023-03-02T17:23:25.785Z,99.90
2023-03-02T17:25:52.818Z,99.90
2023-03-02T17:28:19.679Z,99.90
2023-03-02T17:30:46.844Z,99.90
2023-03-02T17:33:13.650Z,99.90
2023-03-02T17:35:40.560Z,99.90
2023-03-02T17:38:07.317Z,99.90
2023-03-02T17:40:34.241Z,99.90
2023-03-02T17:43:00.981Z,99.90
2023-03-02T17:45:29.094Z,99.90
2023-03-02T17:47:57.932Z,99.90
2023-03-02T17:50:25.460Z,99.90
2023-03-02T17:52:52.282Z,99.90
2023-03-02T17:55:19.196Z,99.90
2023-03-02T17:57:46.133Z,99.90
2023-03-02T18:00:16.459Z,99.90
2023-03-02T18:02:43.450Z,99.90
2023-03-02T18:05:11.160Z,99.90
2023-03-02T18:07:38.279Z,99.90
2023-03-02T18:10:06.075Z,99.90
2023-03-02T18:12:33.369Z,99.90
2023-03-02T18:15:00.102Z,99.90
2023-03-02T18:17:27.192Z,99.90
2023-03-02T18:19:53.892Z,99.90
2023-03-02T18:22:21.934Z,99.90
2023-03-02T18:24:50.588Z,99.90
2023-03-02T18:27:17.451Z,99.90
2023-03-02T18:29:44.356Z,99.90
2023-03-02T18:32:11.696Z,99.90
2023-03-02T18:34:38.757Z,99.90
2023-03-02T18:37:05.491Z,99.90
2023-03-02T18:39:32.206Z,99.90
2023-03-02T18:41:59.209Z,99.90
2023-03-02T18:44:28.101Z,99.90
2023-03-02T18:46:55.881Z,99.90
2023-03-02T18:49:23.167Z,99.90
2023-03-02T18:51:50.279Z,99.90
2023-03-02T18:54:17.138Z,99.90
2023-03-02T18:56:43.832Z,99.90
2023-03-02T18:59:11.258Z,99.90
2023-03-02T19:01:38.044Z,99.90
2023-03-02T19:04:05.117Z,99.90
2023-03-02T19:06:32.496Z,99.90
2023-03-02T19:08:59.427Z,99.90
2023-03-02T19:11:26.531Z,99.90
2023-03-02T19:13:53.366Z,99.90
2023-03-02T19:16:20.150Z,99.90
2023-03-02T19:18:47.112Z,99.90
2023-03-02T19:21:13.948Z,99.90
2023-03-02T19:23:41.974Z,99.90
2023-03-02T19:26:09.517Z,99.90
2023-03-02T19:28:38.202Z,99.90
2023-03-02T19:31:06.791Z,99.90
2023-03-02T19:33:33.770Z,99.90
2023-03-02T19:36:00.725Z,99.90
2023-03-02T19:38:29.247Z,99.90
2023-03-02T19:41:00.608Z,99.90
2023-03-02T19:43:28.358Z,99.90
2023-03-02T19:45:55.811Z,99.90
2023-03-02T19:48:22.527Z,99.90
2023-03-02T19:50:49.418Z,99.90
2023-03-02T19:53:17.193Z,99.90
2023-03-02T19:55:44.710Z,99.90
2023-03-02T19:58:17.262Z,99.90
2023-03-02T20:00:45.287Z,99.90
2023-03-02T20:03:12.973Z,99.90
2023-03-02T20:05:39.966Z,99.90
2023-03-02T20:08:07.349Z,99.90
2023-03-02T20:10:39.991Z,99.90
2023-03-02T20:13:07.426Z,99.90
2023-03-02T20:15:39.904Z,99.90
2023-03-02T20:18:09.474Z,99.90
2023-03-02T20:20:36.383Z,99.90
2023-03-02T20:23:04.532Z,99.90
2023-03-02T20:25:31.833Z,99.90
2023-03-02T20:27:58.646Z,99.90
2023-03-02T20:30:30.603Z,99.90
2023-03-02T20:32:59.023Z,99.90
2023-03-02T20:35:28.089Z,99.90
2023-03-02T20:37:56.329Z,99.90
2023-03-02T20:40:25.147Z,99.90
2023-03-02T20:42:52.371Z,99.90
2023-03-02T20:45:19.170Z,99.90
2023-03-02T20:47:46.599Z,99.90
2023-03-02T20:50:17.453Z,99.90
2023-03-02T20:52:44.286Z,99.90
2023-03-02T20:55:11.788Z,99.90
2023-03-02T20:57:39.222Z,99.90
2023-03-02T21:00:09.305Z,99.90
2023-03-02T21:02:35.996Z,99.90
2023-03-02T21:05:03.373Z,99.90
2023-03-02T21:07:30.532Z,99.90
2023-03-02T21:09:57.240Z,99.90
2023-03-02T21:12:24.216Z,99.90
2023-03-02T21:14:51.094Z,99.90
2023-03-02T21:17:17.823Z,99.90
2023-03-02T21:19:44.722Z,99.90
2023-03-02T21:22:11.427Z,99.90
2023-03-02T21:24:38.384Z,99.90
2023-03-02T21:27:07.370Z,99.90
2023-03-02T21:29:34.130Z,99.90
2023-03-02T21:32:00.956Z,99.90
2023-03-02T21:34:27.692Z,99.90
2023-03-02T21:36:54.526Z,99.90
2023-03-02T21:39:23.627Z,99.90
2023-03-02T21:41:51.502Z,99.90
2023-03-02T21:44:18.552Z,99.90
2023-03-02T21:46:45.550Z,99.90
2023-03-02T21:49:19.154Z,99.90
2023-03-02T21:51:47.569Z,99.90
2023-03-02T21:54:15.566Z,99.90
2023-03-02T21:56:43.642Z,99.90
2023-03-02T21:59:11.323Z,99.90
2023-03-02T22:01:38.089Z,99.90
2023-03-02T22:04:05.267Z,99.90
2023-03-02T22:06:33.438Z,99.90
2023-03-02T22:09:01.438Z,99.90
2023-03-02T22:11:33.289Z,99.90
2023-03-02T22:14:12.376Z,99.90
2023-03-02T22:16:41.906Z,99.90
2023-03-02T22:19:25.457Z,99.90
2023-03-02T22:21:54.117Z,99.90
2023-03-02T22:24:27.454Z,99.90
2023-03-02T22:26:57.103Z,99.90
2023-03-02T22:29:25.579Z,99.90
2023-03-02T22:31:54.653Z,99.90
2023-03-02T22:34:27.795Z,99.90
2023-03-02T22:36:57.038Z,99.90
2023-03-02T22:39:30.594Z,99.90
2023-03-02T22:42:09.547Z,99.90
2023-03-02T22:44:36.535Z,99.90
2023-03-02T22:47:12.319Z,99.90
2023-03-02T22:49:39.038Z,99.90
2023-03-02T22:52:17.472Z,99.90
2023-03-02T22:54:45.652Z,99.90
2023-03-02T22:57:30.322Z,99.90
2023-03-02T23:00:03.322Z,99.90
2023-03-02T23:02:30.005Z,99.90
2023-03-02T23:04:56.834Z,99.90
2023-03-02T23:07:23.580Z,99.90
2023-03-02T23:09:50.377Z,99.90
2023-03-02T23:12:26.369Z,99.90
2023-03-02T23:14:55.826Z,99.90
2023-03-02T23:17:39.239Z,99.90
2023-03-02T23:20:10.992Z,99.90
2023-03-02T23:22:39.105Z,99.90
2023-03-02T23:25:09.281Z,99.90
2023-03-02T23:27:36.337Z,99.90
2023-03-02T23:30:04.622Z,99.90
2023-03-02T23:32:31.370Z,99.90
2023-03-02T23:34:58.235Z,99.90
2023-03-02T23:37:24.934Z,99.90
2023-03-02T23:39:52.515Z,99.90
2023-03-02T23:42:19.329Z,99.90
2023-03-02T23:44:45.991Z,99.90
2023-03-02T23:47:12.695Z,99.90
2023-03-02T23:49:39.449Z,99.90
2023-03-02T23:52:06.204Z,99.90
2023-03-02T23:54:33.190Z,99.90
2023-03-02T23:56:59.902Z,99.90
2023-03-02T23:59:26.624Z,99.90
